createdAt,value
2018-03-29T00:00:04.239Z,0
2018-03-29T00:01:13.490Z,0
2018-03-29T00:02:22.318Z,0
2018-03-29T00:03:31.472Z,0
2018-03-29T00:04:40.298Z,0
2018-03-29T00:05:49.126Z,0
2018-03-29T00:06:58.004Z,0
2018-03-29T00:08:06.828Z,0
2018-03-29T00:09:15.653Z,0
2018-03-29T00:10:24.487Z,0
2018-03-29T00:11:33.587Z,0
2018-03-29T00:12:42.464Z,0
2018-03-29T00:13:51.573Z,0
2018-03-29T00:15:00.400Z,0
2018-03-29T00:16:09.225Z,0
2018-03-29T00:17:18.053Z,0
2018-03-29T00:18:27.308Z,0
2018-03-29T00:19:36.132Z,0
2018-03-29T00:20:44.961Z,0
2018-03-29T00:21:53.788Z,0
2018-03-29T00:23:02.613Z,0
2018-03-29T00:24:11.592Z,0
2018-03-29T00:25:20.424Z,0
2018-03-29T00:26:29.521Z,0
2018-03-29T00:27:38.351Z,0
2018-03-29T00:28:47.174Z,0
2018-03-29T00:29:56.101Z,0
2018-03-29T00:31:04.936Z,0
2018-03-29T00:32:13.763Z,0
2018-03-29T00:33:22.865Z,0
2018-03-29T00:34:31.690Z,0
2018-03-29T00:35:40.563Z,0
2018-03-29T00:36:49.390Z,0
2018-03-29T00:37:58.213Z,0
2018-03-29T00:39:07.039Z,0
2018-03-29T00:40:15.864Z,0
2018-03-29T00:41:25.014Z,0
2018-03-29T00:42:33.840Z,0
2018-03-29T00:43:42.666Z,0
2018-03-29T00:44:51.497Z,0
2018-03-29T00:46:00.596Z,0
2018-03-29T00:47:09.720Z,0
2018-03-29T00:48:18.548Z,0
2018-03-29T00:49:27.373Z,0
2018-03-29T00:50:36.199Z,0
2018-03-29T00:51:45.030Z,0
2018-03-29T00:52:53.849Z,0
2018-03-29T00:54:02.678Z,0
2018-03-29T00:55:11.501Z,0
2018-03-29T00:56:20.328Z,0
2018-03-29T00:57:29.712Z,0
2018-03-29T00:58:38.537Z,0
2018-03-29T00:59:47.360Z,0
2018-03-29T01:00:56.192Z,0
2018-03-29T01:02:05.298Z,0
2018-03-29T01:03:14.117Z,0
2018-03-29T01:04:22.941Z,0
2018-03-29T01:05:31.765Z,0
2018-03-29T01:06:40.630Z,0
2018-03-29T01:07:49.418Z,0
2018-03-29T01:08:58.242Z,0
2018-03-29T01:10:07.346Z,0
2018-03-29T01:11:16.448Z,0
2018-03-29T01:12:25.277Z,0
2018-03-29T01:13:34.376Z,0
2018-03-29T01:14:43.206Z,0
2018-03-29T01:15:52.031Z,0
2018-03-29T01:17:00.860Z,0
2018-03-29T01:18:09.685Z,0
2018-03-29T01:19:18.508Z,0
2018-03-29T01:20:27.333Z,0
2018-03-29T01:21:36.732Z,0
2018-03-29T01:22:45.557Z,0
2018-03-29T01:23:54.385Z,0
2018-03-29T01:25:03.211Z,0
2018-03-29T01:26:12.037Z,0
2018-03-29T01:27:21.010Z,0
2018-03-29T01:28:29.837Z,0
2018-03-29T01:29:38.660Z,0
2018-03-29T01:30:47.487Z,0
2018-03-29T01:31:56.311Z,0
2018-03-29T01:33:05.387Z,0
2018-03-29T01:34:14.211Z,0
2018-03-29T01:35:23.036Z,0
2018-03-29T01:36:31.860Z,0
2018-03-29T01:37:40.685Z,0
2018-03-29T01:38:49.937Z,0
2018-03-29T01:39:58.763Z,0
2018-03-29T01:41:07.588Z,0
2018-03-29T01:42:16.412Z,0
2018-03-29T01:43:25.238Z,0
2018-03-29T01:44:34.071Z,0
2018-03-29T01:45:43.172Z,0
2018-03-29T01:46:51.994Z,0
2018-03-29T01:48:00.824Z,0
2018-03-29T01:49:09.648Z,0
2018-03-29T01:50:18.525Z,0
2018-03-29T01:51:27.349Z,0
2018-03-29T01:52:36.450Z,0
2018-03-29T01:53:45.278Z,0
2018-03-29T01:54:54.101Z,0
2018-03-29T01:56:03.029Z,0
2018-03-29T01:57:11.853Z,0
2018-03-29T01:58:20.679Z,0
2018-03-29T01:59:29.503Z,0
2018-03-29T02:00:38.330Z,0
2018-03-29T02:01:47.807Z,0
2018-03-29T02:02:56.632Z,0
2018-03-29T02:04:05.458Z,0
2018-03-29T02:05:14.561Z,0
2018-03-29T02:06:23.667Z,0
2018-03-29T02:07:32.493Z,0
2018-03-29T02:08:41.318Z,0
2018-03-29T02:09:50.144Z,0
2018-03-29T02:10:58.971Z,0
2018-03-29T02:12:07.801Z,0
2018-03-29T02:13:16.725Z,0
2018-03-29T02:14:25.563Z,0
2018-03-29T02:15:34.377Z,0
2018-03-29T02:16:43.204Z,0
2018-03-29T02:17:52.030Z,0
2018-03-29T02:19:01.181Z,0
2018-03-29T02:20:10.008Z,0
2018-03-29T02:21:18.833Z,0
2018-03-29T02:22:28.211Z,0
2018-03-29T02:23:37.036Z,0
2018-03-29T02:24:46.012Z,0
2018-03-29T02:25:54.837Z,0
2018-03-29T02:27:03.663Z,0
2018-03-29T02:28:12.488Z,0
2018-03-29T02:29:21.312Z,0
2018-03-29T02:30:30.293Z,0
2018-03-29T02:31:39.396Z,0
2018-03-29T02:32:48.221Z,0
2018-03-29T02:33:57.332Z,0
2018-03-29T02:35:06.452Z,0
2018-03-29T02:36:15.516Z,0
2018-03-29T02:37:24.627Z,0
2018-03-29T02:38:33.453Z,0
2018-03-29T02:39:42.281Z,0
2018-03-29T02:40:51.107Z,0
2018-03-29T02:42:00.224Z,0
2018-03-29T02:43:09.044Z,0
2018-03-29T02:44:17.871Z,0
2018-03-29T02:45:26.698Z,0
2018-03-29T02:46:35.805Z,0
2018-03-29T02:47:44.688Z,0
2018-03-29T02:48:53.513Z,0
2018-03-29T02:50:02.616Z,0
2018-03-29T02:51:11.442Z,0
2018-03-29T02:52:20.274Z,0
2018-03-29T02:53:29.195Z,0
2018-03-29T02:54:38.024Z,0
2018-03-29T02:55:46.851Z,0
2018-03-29T02:56:55.676Z,0
2018-03-29T02:58:04.506Z,0
2018-03-29T02:59:13.758Z,0
2018-03-29T03:00:22.582Z,0
2018-03-29T03:01:31.690Z,0
2018-03-29T03:02:40.518Z,0
2018-03-29T03:03:49.624Z,0
2018-03-29T03:04:58.499Z,0
2018-03-29T03:06:07.327Z,0
2018-03-29T03:07:16.717Z,0
2018-03-29T03:08:25.536Z,0
2018-03-29T03:09:34.359Z,0
2018-03-29T03:10:43.284Z,0
2018-03-29T03:11:52.113Z,0
2018-03-29T03:13:01.218Z,0
2018-03-29T03:14:10.044Z,0
2018-03-29T03:15:18.870Z,0
2018-03-29T03:16:27.899Z,0
2018-03-29T03:17:36.729Z,0
2018-03-29T03:18:45.556Z,0
2018-03-29T03:19:54.384Z,0
2018-03-29T03:21:03.212Z,0
2018-03-29T03:22:12.340Z,0
2018-03-29T03:23:21.175Z,0
2018-03-29T03:24:30.002Z,0
2018-03-29T03:25:38.829Z,0
2018-03-29T03:26:47.657Z,0
2018-03-29T03:27:56.493Z,0
2018-03-29T03:29:05.329Z,0
2018-03-29T03:30:14.716Z,0
2018-03-29T03:31:23.536Z,0
2018-03-29T03:32:32.362Z,0
2018-03-29T03:33:41.238Z,0
2018-03-29T03:34:50.067Z,0
2018-03-29T03:35:58.895Z,0
2018-03-29T03:37:07.764Z,0
2018-03-29T03:38:16.824Z,0
2018-03-29T03:39:25.736Z,0
2018-03-29T03:40:34.526Z,0
2018-03-29T03:41:43.354Z,0
2018-03-29T03:42:52.459Z,0
2018-03-29T03:44:01.562Z,0
2018-03-29T03:45:10.538Z,0
2018-03-29T03:46:19.371Z,0
2018-03-29T03:47:28.191Z,0
2018-03-29T03:48:37.296Z,0
2018-03-29T03:49:46.403Z,0
2018-03-29T03:50:55.657Z,0
2018-03-29T03:52:04.485Z,0
2018-03-29T03:53:13.312Z,0
2018-03-29T03:54:22.143Z,0
2018-03-29T03:55:31.522Z,0
2018-03-29T03:56:40.772Z,0
2018-03-29T03:57:49.600Z,0
2018-03-29T03:58:58.427Z,0
2018-03-29T04:00:07.531Z,0
2018-03-29T04:01:16.357Z,0
2018-03-29T04:02:25.182Z,0
2018-03-29T04:03:34.010Z,0
2018-03-29T04:04:42.838Z,0
2018-03-29T04:05:51.664Z,0
2018-03-29T04:07:00.490Z,0
2018-03-29T04:08:09.568Z,0
2018-03-29T04:09:18.671Z,0
2018-03-29T04:10:27.499Z,0
2018-03-29T04:11:36.324Z,0
2018-03-29T04:12:45.159Z,0
2018-03-29T04:13:53.981Z,0
2018-03-29T04:15:02.811Z,0
2018-03-29T04:16:11.635Z,0
2018-03-29T04:17:21.017Z,0
2018-03-29T04:18:29.847Z,0
2018-03-29T04:19:38.674Z,0
2018-03-29T04:20:47.501Z,0
2018-03-29T04:21:56.609Z,0
2018-03-29T04:23:05.437Z,0
2018-03-29T04:24:14.264Z,0
2018-03-29T04:25:23.093Z,0
2018-03-29T04:26:31.921Z,0
2018-03-29T04:27:41.028Z,0
2018-03-29T04:28:49.854Z,0
2018-03-29T04:29:58.680Z,0
2018-03-29T04:31:07.508Z,0
2018-03-29T04:32:16.613Z,0
2018-03-29T04:33:25.444Z,0
2018-03-29T04:34:34.270Z,0
2018-03-29T04:35:43.100Z,0
2018-03-29T04:36:52.226Z,0
2018-03-29T04:38:01.052Z,0
2018-03-29T04:39:09.878Z,0
2018-03-29T04:40:18.704Z,0
2018-03-29T04:41:27.809Z,0
2018-03-29T04:42:36.640Z,0
2018-03-29T04:43:45.739Z,0
2018-03-29T04:44:54.569Z,0
2018-03-29T04:46:03.400Z,0
2018-03-29T04:47:12.502Z,0
2018-03-29T04:48:21.630Z,0
2018-03-29T04:49:30.459Z,0
2018-03-29T04:50:39.285Z,0
2018-03-29T04:51:48.112Z,0
2018-03-29T04:52:56.947Z,0
2018-03-29T04:54:05.820Z,0
2018-03-29T04:55:14.647Z,0
2018-03-29T04:56:23.476Z,0
2018-03-29T04:57:32.304Z,0
2018-03-29T04:58:41.133Z,0
2018-03-29T04:59:49.959Z,0
2018-03-29T05:00:58.790Z,0
2018-03-29T05:02:07.619Z,0
2018-03-29T05:03:16.449Z,0
2018-03-29T05:04:25.273Z,0
2018-03-29T05:05:34.201Z,0
2018-03-29T05:06:43.027Z,0
2018-03-29T05:07:51.856Z,0
2018-03-29T05:09:00.683Z,5
2018-03-29T05:10:09.510Z,5
2018-03-29T05:11:18.536Z,5
2018-03-29T05:12:27.646Z,10
2018-03-29T05:13:36.474Z,10
2018-03-29T05:14:45.303Z,15
2018-03-29T05:15:54.406Z,15
2018-03-29T05:17:03.383Z,15
2018-03-29T05:18:12.212Z,10
2018-03-29T05:19:21.090Z,15
2018-03-29T05:20:29.920Z,15
2018-03-29T05:21:38.748Z,15
2018-03-29T05:22:47.727Z,20
2018-03-29T05:23:56.835Z,15
2018-03-29T05:25:06.219Z,15
2018-03-29T05:26:15.046Z,15
2018-03-29T05:27:23.873Z,20
2018-03-29T05:28:33.280Z,20
2018-03-29T05:29:42.108Z,20
2018-03-29T05:30:51.214Z,25
2018-03-29T05:32:00.041Z,15
2018-03-29T05:33:09.146Z,15
2018-03-29T05:34:18.122Z,15
2018-03-29T05:35:27.230Z,20
2018-03-29T05:36:36.334Z,15
2018-03-29T05:37:45.440Z,25
2018-03-29T05:38:54.267Z,25
2018-03-29T05:40:03.194Z,30
2018-03-29T05:41:11.974Z,25
2018-03-29T05:42:20.800Z,25
2018-03-29T05:43:29.628Z,20
2018-03-29T05:44:38.456Z,25
2018-03-29T05:45:47.585Z,25
2018-03-29T05:46:56.418Z,25
2018-03-29T05:48:05.244Z,20
2018-03-29T05:49:14.067Z,25
2018-03-29T05:50:22.895Z,25
2018-03-29T05:51:31.823Z,30
2018-03-29T05:52:40.650Z,25
2018-03-29T05:53:49.480Z,35
2018-03-29T05:54:58.311Z,40
2018-03-29T05:56:07.137Z,35
2018-03-29T05:57:16.167Z,50
2018-03-29T05:58:24.997Z,50
2018-03-29T05:59:33.825Z,60
2018-03-29T06:00:42.651Z,70
2018-03-29T06:01:51.478Z,75
2018-03-29T06:03:00.413Z,75
2018-03-29T06:04:09.236Z,75
2018-03-29T06:05:18.062Z,80
2018-03-29T06:06:26.888Z,85
2018-03-29T06:07:35.715Z,90
2018-03-29T06:08:44.543Z,95
2018-03-29T06:09:53.375Z,100
2018-03-29T06:11:02.247Z,100
2018-03-29T06:12:11.032Z,95
2018-03-29T06:13:19.858Z,90
2018-03-29T06:14:29.032Z,90
2018-03-29T06:15:37.862Z,95
2018-03-29T06:16:46.693Z,95
2018-03-29T06:17:55.532Z,100
2018-03-29T06:19:04.637Z,95
2018-03-29T06:20:13.566Z,95
2018-03-29T06:21:22.394Z,95
2018-03-29T06:22:31.222Z,95
2018-03-29T06:23:40.050Z,110
2018-03-29T06:24:48.878Z,110
2018-03-29T06:25:57.754Z,105
2018-03-29T06:27:06.586Z,105
2018-03-29T06:28:15.414Z,105
2018-03-29T06:29:24.243Z,95
2018-03-29T06:30:33.071Z,80
2018-03-29T06:31:41.951Z,90
2018-03-29T06:32:50.779Z,100
2018-03-29T06:33:59.607Z,105
2018-03-29T06:35:08.436Z,115
2018-03-29T06:36:17.542Z,120
2018-03-29T06:37:26.569Z,125
2018-03-29T06:38:35.413Z,125
2018-03-29T06:39:44.236Z,120
2018-03-29T06:40:53.345Z,105
2018-03-29T06:42:02.174Z,115
2018-03-29T06:43:11.153Z,125
2018-03-29T06:44:19.988Z,135
2018-03-29T06:45:28.819Z,140
2018-03-29T06:46:37.651Z,145
2018-03-29T06:47:46.474Z,150
2018-03-29T06:48:55.305Z,155
2018-03-29T06:50:04.134Z,150
2018-03-29T06:51:12.960Z,145
2018-03-29T06:52:22.070Z,145
2018-03-29T06:53:30.898Z,140
2018-03-29T06:54:40.125Z,140
2018-03-29T06:55:48.951Z,140
2018-03-29T06:56:57.783Z,165
2018-03-29T06:58:06.615Z,175
2018-03-29T06:59:15.439Z,180
2018-03-29T07:00:24.421Z,175
2018-03-29T07:01:33.250Z,205
2018-03-29T07:02:42.078Z,205
2018-03-29T07:03:50.908Z,205
2018-03-29T07:05:00.015Z,200
2018-03-29T07:06:09.377Z,205
2018-03-29T07:07:18.481Z,220
2018-03-29T07:08:27.312Z,235
2018-03-29T07:09:36.142Z,240
2018-03-29T07:10:44.981Z,240
2018-03-29T07:11:53.916Z,245
2018-03-29T07:13:02.739Z,240
2018-03-29T07:14:11.571Z,240
2018-03-29T07:15:20.397Z,240
2018-03-29T07:16:29.226Z,245
2018-03-29T07:17:38.304Z,240
2018-03-29T07:18:47.136Z,245
2018-03-29T07:19:55.973Z,240
2018-03-29T07:21:04.802Z,250
2018-03-29T07:22:13.632Z,255
2018-03-29T07:23:22.983Z,255
2018-03-29T07:24:31.816Z,270
2018-03-29T07:25:40.925Z,265
2018-03-29T07:26:49.755Z,230
2018-03-29T07:27:58.585Z,215
2018-03-29T07:29:07.466Z,235
2018-03-29T07:30:16.300Z,255
2018-03-29T07:31:25.127Z,275
2018-03-29T07:32:33.958Z,310
2018-03-29T07:33:42.786Z,285
2018-03-29T07:34:51.767Z,265
2018-03-29T07:36:00.595Z,245
2018-03-29T07:37:09.426Z,255
2018-03-29T07:38:18.255Z,265
2018-03-29T07:39:27.086Z,290
2018-03-29T07:40:35.971Z,270
2018-03-29T07:41:44.801Z,285
2018-03-29T07:42:53.630Z,265
2018-03-29T07:44:02.464Z,280
2018-03-29T07:45:11.852Z,315
2018-03-29T07:46:20.784Z,285
2018-03-29T07:47:29.617Z,270
2018-03-29T07:48:38.449Z,285
2018-03-29T07:49:47.276Z,295
2018-03-29T07:50:56.392Z,280
2018-03-29T07:52:05.613Z,285
2018-03-29T07:53:14.458Z,295
2018-03-29T07:54:23.281Z,330
2018-03-29T07:55:32.112Z,320
2018-03-29T07:56:40.943Z,300
2018-03-29T07:57:50.120Z,280
2018-03-29T07:58:58.906Z,280
2018-03-29T08:00:08.029Z,310
2018-03-29T08:01:16.860Z,340
2018-03-29T08:02:25.691Z,345
2018-03-29T08:03:34.820Z,350
2018-03-29T08:04:43.650Z,350
2018-03-29T08:05:52.480Z,360
2018-03-29T08:07:01.314Z,355
2018-03-29T08:08:10.420Z,335
2018-03-29T08:09:19.303Z,325
2018-03-29T08:10:28.133Z,300
2018-03-29T08:11:36.970Z,325
2018-03-29T08:12:46.362Z,340
2018-03-29T08:13:55.189Z,290
2018-03-29T08:15:04.018Z,315
2018-03-29T08:16:12.851Z,355
2018-03-29T08:17:21.682Z,390
2018-03-29T08:18:30.510Z,355
2018-03-29T08:19:39.340Z,350
2018-03-29T08:20:48.498Z,450
2018-03-29T08:21:57.328Z,385
2018-03-29T08:23:06.159Z,305
2018-03-29T08:24:15.550Z,235
2018-03-29T08:25:24.381Z,220
2018-03-29T08:26:33.213Z,245
2018-03-29T08:27:42.041Z,185
2018-03-29T08:28:50.871Z,140
2018-03-29T08:29:59.701Z,165
2018-03-29T08:31:08.538Z,130
2018-03-29T08:32:17.661Z,165
2018-03-29T08:33:26.492Z,165
2018-03-29T08:34:35.324Z,125
2018-03-29T08:35:44.432Z,110
2018-03-29T08:36:53.264Z,155
2018-03-29T08:38:02.147Z,190
2018-03-29T08:39:10.982Z,185
2018-03-29T08:40:19.809Z,115
2018-03-29T08:41:28.635Z,175
2018-03-29T08:42:37.465Z,300
2018-03-29T08:43:46.444Z,375
2018-03-29T08:44:55.275Z,385
2018-03-29T08:46:04.110Z,390
2018-03-29T08:47:12.936Z,435
2018-03-29T08:48:21.766Z,450
2018-03-29T08:49:30.925Z,420
2018-03-29T08:50:39.763Z,380
2018-03-29T08:51:49.156Z,420
2018-03-29T08:52:58.260Z,440
2018-03-29T08:54:07.091Z,460
2018-03-29T08:55:15.923Z,445
2018-03-29T08:56:24.762Z,490
2018-03-29T08:57:33.597Z,505
2018-03-29T08:58:42.428Z,495
2018-03-29T08:59:51.538Z,515
2018-03-29T09:01:00.469Z,545
2018-03-29T09:02:09.302Z,410
2018-03-29T09:03:18.133Z,360
2018-03-29T09:04:26.966Z,315
2018-03-29T09:05:35.800Z,390
2018-03-29T09:06:44.733Z,350
2018-03-29T09:07:53.566Z,325
2018-03-29T09:09:02.400Z,285
2018-03-29T09:10:11.233Z,270
2018-03-29T09:11:20.062Z,175
2018-03-29T09:12:29.224Z,165
2018-03-29T09:13:38.050Z,145
2018-03-29T09:14:47.451Z,150
2018-03-29T09:15:56.282Z,125
2018-03-29T09:17:05.117Z,125
2018-03-29T09:18:14.144Z,170
2018-03-29T09:19:22.974Z,165
2018-03-29T09:20:31.806Z,125
2018-03-29T09:21:40.637Z,120
2018-03-29T09:22:49.466Z,135
2018-03-29T09:23:58.446Z,155
2018-03-29T09:25:07.278Z,185
2018-03-29T09:26:16.110Z,260
2018-03-29T09:27:24.939Z,265
2018-03-29T09:28:33.771Z,235
2018-03-29T09:29:43.132Z,215
2018-03-29T09:30:52.245Z,210
2018-03-29T09:32:01.348Z,260
2018-03-29T09:33:10.180Z,325
2018-03-29T09:34:19.010Z,415
2018-03-29T09:35:27.988Z,420
2018-03-29T09:36:36.817Z,340
2018-03-29T09:37:45.647Z,280
2018-03-29T09:38:54.754Z,255
2018-03-29T09:40:03.586Z,280
2018-03-29T09:41:12.567Z,340
2018-03-29T09:42:21.395Z,405
2018-03-29T09:43:30.228Z,365
2018-03-29T09:44:39.608Z,370
2018-03-29T09:45:48.437Z,480
2018-03-29T09:46:57.668Z,575
2018-03-29T09:48:06.495Z,580
2018-03-29T09:49:15.602Z,540
2018-03-29T09:50:24.432Z,520
2018-03-29T09:51:33.269Z,535
2018-03-29T09:52:42.243Z,535
2018-03-29T09:53:51.072Z,545
2018-03-29T09:54:59.904Z,560
2018-03-29T09:56:08.734Z,590
2018-03-29T09:57:17.567Z,540
2018-03-29T09:58:26.495Z,500
2018-03-29T09:59:35.330Z,540
2018-03-29T10:00:44.436Z,480
2018-03-29T10:01:53.271Z,460
2018-03-29T10:03:02.103Z,465
2018-03-29T10:04:10.932Z,455
2018-03-29T10:05:19.762Z,490
2018-03-29T10:06:28.594Z,485
2018-03-29T10:07:37.428Z,480
2018-03-29T10:08:46.260Z,480
2018-03-29T10:09:55.193Z,510
2018-03-29T10:11:04.306Z,530
2018-03-29T10:12:13.157Z,515
2018-03-29T10:13:21.969Z,540
2018-03-29T10:14:30.801Z,615
2018-03-29T10:15:39.785Z,610
2018-03-29T10:16:48.619Z,645
2018-03-29T10:17:57.462Z,600
2018-03-29T10:19:06.285Z,615
2018-03-29T10:20:15.120Z,620
2018-03-29T10:21:24.232Z,495
2018-03-29T10:22:33.064Z,390
2018-03-29T10:23:41.897Z,310
2018-03-29T10:24:51.007Z,290
2018-03-29T10:25:59.838Z,340
2018-03-29T10:27:08.921Z,435
2018-03-29T10:28:18.314Z,520
2018-03-29T10:29:27.149Z,580
2018-03-29T10:30:35.984Z,560
2018-03-29T10:31:45.102Z,545
2018-03-29T10:32:53.992Z,660
2018-03-29T10:34:03.100Z,635
2018-03-29T10:35:12.208Z,575
2018-03-29T10:36:21.040Z,285
2018-03-29T10:37:29.871Z,180
2018-03-29T10:38:38.806Z,160
2018-03-29T10:39:47.638Z,155
2018-03-29T10:40:56.472Z,160
2018-03-29T10:42:05.311Z,175
2018-03-29T10:43:14.144Z,190
2018-03-29T10:44:23.073Z,225
2018-03-29T10:45:31.905Z,270
2018-03-29T10:46:40.738Z,350
2018-03-29T10:47:49.571Z,445
2018-03-29T10:48:58.401Z,520
2018-03-29T10:50:07.284Z,545
2018-03-29T10:51:16.114Z,510
2018-03-29T10:52:24.947Z,440
2018-03-29T10:53:33.775Z,415
2018-03-29T10:54:42.604Z,405
2018-03-29T10:55:51.435Z,435
2018-03-29T10:57:00.266Z,425
2018-03-29T10:58:09.464Z,400
2018-03-29T10:59:18.293Z,350
2018-03-29T11:00:27.122Z,380
2018-03-29T11:01:36.053Z,405
2018-03-29T11:02:45.165Z,510
2018-03-29T11:03:53.996Z,590
2018-03-29T11:05:02.826Z,680
2018-03-29T11:06:11.657Z,705
2018-03-29T11:07:20.487Z,645
2018-03-29T11:08:29.319Z,610
2018-03-29T11:09:38.151Z,635
2018-03-29T11:10:46.985Z,680
2018-03-29T11:11:55.819Z,690
2018-03-29T11:13:04.641Z,605
2018-03-29T11:14:13.475Z,525
2018-03-29T11:15:22.308Z,545
2018-03-29T11:16:31.141Z,520
2018-03-29T11:17:39.973Z,470
2018-03-29T11:18:49.004Z,485
2018-03-29T11:19:57.838Z,490
2018-03-29T11:21:06.668Z,455
2018-03-29T11:22:15.509Z,425
2018-03-29T11:23:24.625Z,365
2018-03-29T11:24:33.608Z,405
2018-03-29T11:25:42.715Z,435
2018-03-29T11:26:51.544Z,465
2018-03-29T11:28:00.378Z,555
2018-03-29T11:29:09.482Z,580
2018-03-29T11:30:18.311Z,650
2018-03-29T11:31:27.144Z,655
2018-03-29T11:32:35.976Z,630
2018-03-29T11:33:44.817Z,640
2018-03-29T11:34:53.650Z,665
2018-03-29T11:36:02.732Z,665
2018-03-29T11:37:11.566Z,595
2018-03-29T11:38:20.397Z,480
2018-03-29T11:39:29.231Z,510
2018-03-29T11:40:38.066Z,455
2018-03-29T11:41:47.011Z,415
2018-03-29T11:42:56.178Z,415
2018-03-29T11:44:05.011Z,430
2018-03-29T11:45:13.844Z,425
2018-03-29T11:46:22.678Z,460
2018-03-29T11:47:31.666Z,285
2018-03-29T11:48:40.497Z,200
2018-03-29T11:49:49.608Z,185
2018-03-29T11:50:58.439Z,175
2018-03-29T11:52:07.271Z,175
2018-03-29T11:53:16.506Z,170
2018-03-29T11:54:25.456Z,145
2018-03-29T11:55:34.165Z,145
2018-03-29T11:56:42.996Z,165
2018-03-29T11:57:51.827Z,175
2018-03-29T11:59:00.759Z,185
2018-03-29T12:00:09.593Z,260
2018-03-29T12:01:18.425Z,320
2018-03-29T12:02:27.260Z,260
2018-03-29T12:03:36.090Z,275
2018-03-29T12:04:45.174Z,315
2018-03-29T12:05:54.006Z,330
2018-03-29T12:07:02.836Z,360
2018-03-29T12:08:11.669Z,420
2018-03-29T12:09:20.786Z,385
2018-03-29T12:10:29.771Z,385
2018-03-29T12:11:38.600Z,380
2018-03-29T12:12:47.432Z,420
2018-03-29T12:13:56.267Z,540
2018-03-29T12:15:05.650Z,490
2018-03-29T12:16:14.860Z,445
2018-03-29T12:17:23.691Z,475
2018-03-29T12:18:33.102Z,550
2018-03-29T12:19:41.938Z,700
2018-03-29T12:20:51.044Z,985
2018-03-29T12:22:00.027Z,1305
2018-03-29T12:23:08.859Z,1010
2018-03-29T12:24:17.692Z,1030
2018-03-29T12:25:26.800Z,2010
2018-03-29T12:26:35.634Z,790
2018-03-29T12:27:44.469Z,665
2018-03-29T12:28:53.307Z,575
2018-03-29T12:30:02.139Z,520
2018-03-29T12:31:10.977Z,415
2018-03-29T12:32:19.808Z,335
2018-03-29T12:33:29.044Z,305
2018-03-29T12:34:38.153Z,265
2018-03-29T12:35:46.988Z,245
2018-03-29T12:36:55.821Z,240
2018-03-29T12:38:04.666Z,205
2018-03-29T12:39:13.599Z,170
2018-03-29T12:40:22.434Z,155
2018-03-29T12:41:31.267Z,185
2018-03-29T12:42:40.104Z,215
2018-03-29T12:43:48.941Z,290
2018-03-29T12:44:58.181Z,295
2018-03-29T12:46:06.951Z,280
2018-03-29T12:47:15.786Z,295
2018-03-29T12:48:24.914Z,370
2018-03-29T12:49:33.748Z,395
2018-03-29T12:50:42.782Z,405
2018-03-29T12:51:51.892Z,405
2018-03-29T12:53:00.726Z,500
2018-03-29T12:54:09.561Z,705
2018-03-29T12:55:18.394Z,830
2018-03-29T12:56:27.755Z,945
2018-03-29T12:57:36.878Z,735
2018-03-29T12:58:45.711Z,745
2018-03-29T12:59:54.544Z,790
2018-03-29T13:01:03.378Z,770
2018-03-29T13:02:12.359Z,960
2018-03-29T13:03:21.192Z,1205
2018-03-29T13:04:30.027Z,985
2018-03-29T13:05:38.860Z,1035
2018-03-29T13:06:47.693Z,845
2018-03-29T13:07:56.826Z,800
2018-03-29T13:09:05.661Z,850
2018-03-29T13:10:14.493Z,815
2018-03-29T13:11:23.328Z,795
2018-03-29T13:12:32.448Z,730
2018-03-29T13:13:41.607Z,735
2018-03-29T13:14:50.441Z,760
2018-03-29T13:15:59.276Z,810
2018-03-29T13:17:08.113Z,2120
2018-03-29T13:18:16.952Z,2065
2018-03-29T13:19:25.837Z,1875
2018-03-29T13:20:34.952Z,1250
2018-03-29T13:21:43.789Z,710
2018-03-29T13:22:52.626Z,795
2018-03-29T13:24:01.462Z,625
2018-03-29T13:25:10.371Z,610
2018-03-29T13:26:19.460Z,595
2018-03-29T13:27:28.298Z,605
2018-03-29T13:28:37.153Z,685
2018-03-29T13:29:45.971Z,895
2018-03-29T13:30:54.867Z,900
2018-03-29T13:32:03.693Z,845
2018-03-29T13:33:12.532Z,1185
2018-03-29T13:34:21.370Z,1575
2018-03-29T13:35:30.217Z,1655
2018-03-29T13:36:39.323Z,1545
2018-03-29T13:37:48.131Z,1370
2018-03-29T13:38:56.969Z,2005
2018-03-29T13:40:06.099Z,1810
2018-03-29T13:41:14.939Z,1425
2018-03-29T13:42:23.829Z,1545
2018-03-29T13:43:32.665Z,1745
2018-03-29T13:44:41.505Z,2350
2018-03-29T13:45:50.620Z,2685
2018-03-29T13:46:59.463Z,2100
2018-03-29T13:48:08.576Z,2395
2018-03-29T13:49:17.417Z,2010
2018-03-29T13:50:26.257Z,1395
2018-03-29T13:51:35.095Z,1605
2018-03-29T13:52:43.938Z,990
2018-03-29T13:53:53.096Z,1185
2018-03-29T13:55:01.916Z,1685
2018-03-29T13:56:11.034Z,680
2018-03-29T13:57:19.874Z,540
2018-03-29T13:58:28.712Z,1775
2018-03-29T13:59:37.551Z,615
2018-03-29T14:00:46.390Z,1500
2018-03-29T14:01:55.511Z,1255
2018-03-29T14:03:04.626Z,1305
2018-03-29T14:04:13.466Z,1255
2018-03-29T14:05:22.404Z,1495
2018-03-29T14:06:31.241Z,1130
2018-03-29T14:07:40.080Z,1960
2018-03-29T14:08:48.918Z,2240
2018-03-29T14:09:57.760Z,2370
2018-03-29T14:11:06.976Z,2425
2018-03-29T14:12:15.869Z,2015
2018-03-29T14:13:24.705Z,2595
2018-03-29T14:14:33.545Z,2545
2018-03-29T14:15:42.384Z,2260
2018-03-29T14:16:51.430Z,2105
2018-03-29T14:18:00.275Z,1995
2018-03-29T14:19:09.113Z,1180
2018-03-29T14:20:17.956Z,610
2018-03-29T14:21:26.799Z,545
2018-03-29T14:22:35.641Z,510
2018-03-29T14:23:44.482Z,515
2018-03-29T14:24:53.324Z,835
2018-03-29T14:26:02.167Z,540
2018-03-29T14:27:11.006Z,500
2018-03-29T14:28:19.997Z,435
2018-03-29T14:29:28.837Z,365
2018-03-29T14:30:37.676Z,340
2018-03-29T14:31:46.791Z,320
2018-03-29T14:32:55.631Z,280
2018-03-29T14:34:04.571Z,245
2018-03-29T14:35:13.691Z,225
2018-03-29T14:36:22.532Z,215
2018-03-29T14:37:31.369Z,215
2018-03-29T14:38:40.209Z,205
2018-03-29T14:39:49.141Z,175
2018-03-29T14:40:57.978Z,145
2018-03-29T14:42:07.102Z,115
2018-03-29T14:43:15.938Z,90
2018-03-29T14:44:25.061Z,75
2018-03-29T14:45:33.998Z,55
2018-03-29T14:46:42.878Z,45
2018-03-29T14:47:51.669Z,35
2018-03-29T14:49:00.505Z,30
2018-03-29T14:50:09.341Z,30
2018-03-29T14:51:18.324Z,25
2018-03-29T14:52:27.159Z,25
2018-03-29T14:53:35.993Z,25
2018-03-29T14:54:44.829Z,20
2018-03-29T14:55:53.940Z,20
2018-03-29T14:57:02.926Z,20
2018-03-29T14:58:11.760Z,20
2018-03-29T14:59:20.600Z,20
2018-03-29T15:00:29.430Z,25
2018-03-29T15:01:38.262Z,25
2018-03-29T15:02:47.196Z,25
2018-03-29T15:03:56.030Z,25
2018-03-29T15:05:04.860Z,30
2018-03-29T15:06:13.693Z,35
2018-03-29T15:07:22.528Z,40
2018-03-29T15:08:31.454Z,40
2018-03-29T15:09:40.288Z,45
2018-03-29T15:10:49.118Z,45
2018-03-29T15:11:58.228Z,45
2018-03-29T15:13:07.058Z,45
2018-03-29T15:14:16.190Z,50
2018-03-29T15:15:25.019Z,55
2018-03-29T15:16:33.849Z,65
2018-03-29T15:17:42.681Z,75
2018-03-29T15:18:51.513Z,85
2018-03-29T15:20:00.672Z,85
2018-03-29T15:21:09.788Z,75
2018-03-29T15:22:18.611Z,65
2018-03-29T15:23:27.444Z,60
2018-03-29T15:24:36.279Z,50
2018-03-29T15:25:45.116Z,50
2018-03-29T15:26:53.940Z,55
2018-03-29T15:28:02.781Z,70
2018-03-29T15:29:11.616Z,80
2018-03-29T15:30:20.717Z,70
2018-03-29T15:31:29.753Z,70
2018-03-29T15:32:38.584Z,65
2018-03-29T15:33:47.414Z,65
2018-03-29T15:34:56.244Z,70
2018-03-29T15:36:05.348Z,80
2018-03-29T15:37:14.529Z,95
2018-03-29T15:38:23.293Z,105
2018-03-29T15:39:32.120Z,85
2018-03-29T15:40:41.228Z,60
2018-03-29T15:41:50.346Z,50
2018-03-29T15:42:59.857Z,50
2018-03-29T15:44:08.967Z,55
2018-03-29T15:45:17.794Z,75
2018-03-29T15:46:26.913Z,95
2018-03-29T15:47:35.747Z,170
2018-03-29T15:48:44.999Z,475
2018-03-29T15:49:54.102Z,695
2018-03-29T15:51:02.932Z,535
2018-03-29T15:52:11.760Z,585
2018-03-29T15:53:20.592Z,590
2018-03-29T15:54:29.523Z,585
2018-03-29T15:55:38.356Z,1105
2018-03-29T15:56:47.188Z,1350
2018-03-29T15:57:56.018Z,1145
2018-03-29T15:59:04.851Z,1305
2018-03-29T16:00:13.935Z,960
2018-03-29T16:01:23.047Z,1155
2018-03-29T16:02:31.885Z,1090
2018-03-29T16:03:40.722Z,1020
2018-03-29T16:04:49.559Z,950
2018-03-29T16:05:58.500Z,945
2018-03-29T16:07:07.390Z,875
2018-03-29T16:08:16.168Z,905
2018-03-29T16:09:25.005Z,1195
2018-03-29T16:10:33.839Z,1315
2018-03-29T16:11:42.674Z,1260